sensor_id;sensor_type;location;lat;lon;timestamp;pressure;altitude;pressure_sealevel;temperature;humidity
62510;BME280;48558;48.242;11.654;2024-01-30T00:01:03;97637.34;;;-1.62;100.00
62510;BME280;48558;48.242;11.654;2024-01-30T00:05:16;97616.91;;;-1.75;100.00
62510;BME280;48558;48.242;11.654;2024-01-30T00:09:28;97657.03;;;-1.50;100.00
62510;BME280;48558;48.242;11.654;2024-01-30T00:13:41;97601.63;;;-1.68;100.00
62510;BME280;48558;48.242;11.654;2024-01-30T00:17:54;97643.81;;;-1.51;100.00
62510;BME280;48558;48.242;11.654;2024-01-30T00:22:07;97662.72;;;-1.55;100.00
62510;BME280;48558;48.242;11.654;2024-01-30T00:26:20;97620.25;;;-1.82;100.00
62510;BME280;48558;48.242;11.654;2024-01-30T00:30:33;97656.84;;;-1.57;100.00
62510;BME280;48558;48.242;11.654;2024-01-30T00:34:46;97631.59;;;-1.76;100.00
62510;BME280;48558;48.242;11.654;2024-01-30T00:38:58;97607.50;;;-1.97;100.00
62510;BME280;48558;48.242;11.654;2024-01-30T00:43:11;97635.25;;;-1.84;100.00
62510;BME280;48558;48.242;11.654;2024-01-30T00:47:23;97648.56;;;-1.79;100.00
62510;BME280;48558;48.242;11.654;2024-01-30T00:51:36;97653.88;;;-1.83;100.00
62510;BME280;48558;48.242;11.654;2024-01-30T00:55:48;97627.56;;;-1.98;100.00
62510;BME280;48558;48.242;11.654;2024-01-30T01:00:01;97659.03;;;-1.78;100.00
62510;BME280;48558;48.242;11.654;2024-01-30T01:04:15;97648.19;;;-1.93;100.00
62510;BME280;48558;48.242;11.654;2024-01-30T01:08:27;97646.28;;;-1.93;100.00
62510;BME280;48558;48.242;11.654;2024-01-30T01:12:40;97641.38;;;-2.03;100.00
62510;BME280;48558;48.242;11.654;2024-01-30T01:16:53;97649.69;;;-1.96;100.00
62510;BME280;48558;48.242;11.654;2024-01-30T01:21:05;97647.84;;;-1.92;100.00
62510;BME280;48558;48.242;11.654;2024-01-30T01:25:18;97636.38;;;-2.01;100.00
62510;BME280;48558;48.242;11.654;2024-01-30T01:29:31;97628.78;;;-2.11;100.00
62510;BME280;48558;48.242;11.654;2024-01-30T01:33:44;97616.13;;;-2.07;100.00
62510;BME280;48558;48.242;11.654;2024-01-30T01:37:57;97629.59;;;-2.10;100.00
62510;BME280;48558;48.242;11.654;2024-01-30T01:42:12;97628.50;;;-2.22;100.00
62510;BME280;48558;48.242;11.654;2024-01-30T01:46:26;97648.38;;;-2.02;100.00
62510;BME280;48558;48.242;11.654;2024-01-30T01:50:41;97654.03;;;-2.07;100.00
62510;BME280;48558;48.242;11.654;2024-01-30T01:54:55;97632.97;;;-2.29;100.00
62510;BME280;48558;48.242;11.654;2024-01-30T01:59:08;97636.03;;;-2.15;100.00
62510;BME280;48558;48.242;11.654;2024-01-30T02:03:21;97639.69;;;-2.07;100.00
62510;BME280;48558;48.242;11.654;2024-01-30T02:07:33;97655.50;;;-2.09;100.00
62510;BME280;48558;48.242;11.654;2024-01-30T02:11:46;97646.25;;;-2.08;100.00
62510;BME280;48558;48.242;11.654;2024-01-30T02:15:59;97641.16;;;-2.26;100.00
62510;BME280;48558;48.242;11.654;2024-01-30T02:20:11;97637.22;;;-2.28;100.00
62510;BME280;48558;48.242;11.654;2024-01-30T02:24:25;97631.97;;;-2.37;100.00
62510;BME280;48558;48.242;11.654;2024-01-30T02:28:38;97630.94;;;-2.32;100.00
62510;BME280;48558;48.242;11.654;2024-01-30T02:32:51;97636.34;;;-2.32;100.00
62510;BME280;48558;48.242;11.654;2024-01-30T02:37:03;97626.94;;;-2.23;100.00
62510;BME280;48558;48.242;11.654;2024-01-30T02:41:16;97630.25;;;-2.29;100.00
62510;BME280;48558;48.242;11.654;2024-01-30T02:45:28;97618.00;;;-2.39;100.00
62510;BME280;48558;48.242;11.654;2024-01-30T02:49:41;97625.06;;;-2.34;100.00
62510;BME280;48558;48.242;11.654;2024-01-30T02:53:54;97610.13;;;-2.44;100.00
62510;BME280;48558;48.242;11.654;2024-01-30T02:58:06;97629.28;;;-2.21;100.00
62510;BME280;48558;48.242;11.654;2024-01-30T03:02:19;97625.34;;;-2.24;100.00
62510;BME280;48558;48.242;11.654;2024-01-30T03:06:32;97567.31;;;-2.69;100.00
62510;BME280;48558;48.242;11.654;2024-01-30T03:10:44;97612.41;;;-2.46;100.00
62510;BME280;48558;48.242;11.654;2024-01-30T03:14:57;97627.97;;;-2.27;100.00
62510;BME280;48558;48.242;11.654;2024-01-30T03:19:09;97604.06;;;-2.25;100.00
62510;BME280;48558;48.242;11.654;2024-01-30T03:23:22;97594.31;;;-2.42;100.00
62510;BME280;48558;48.242;11.654;2024-01-30T03:27:34;97622.81;;;-2.32;100.00
62510;BME280;48558;48.242;11.654;2024-01-30T03:31:47;97595.63;;;-2.51;100.00
62510;BME280;48558;48.242;11.654;2024-01-30T03:36:03;97596.59;;;-2.44;100.00
62510;BME280;48558;48.242;11.654;2024-01-30T03:40:17;97555.34;;;-2.68;100.00
62510;BME280;48558;48.242;11.654;2024-01-30T03:44:29;97589.31;;;-2.55;100.00
62510;BME280;48558;48.242;11.654;2024-01-30T03:48:42;97598.66;;;-2.53;100.00
62510;BME280;48558;48.242;11.654;2024-01-30T03:52:54;97597.63;;;-2.48;100.00
62510;BME280;48558;48.242;11.654;2024-01-30T03:57:07;97575.72;;;-2.59;100.00
62510;BME280;48558;48.242;11.654;2024-01-30T04:01:20;97601.66;;;-2.58;100.00
62510;BME280;48558;48.242;11.654;2024-01-30T04:05:32;97601.97;;;-2.59;100.00
62510;BME280;48558;48.242;11.654;2024-01-30T04:09:45;97592.44;;;-2.69;100.00
62510;BME280;48558;48.242;11.654;2024-01-30T04:13:58;97620.31;;;-2.53;100.00
62510;BME280;48558;48.242;11.654;2024-01-30T04:18:10;97567.97;;;-2.88;100.00
62510;BME280;48558;48.242;11.654;2024-01-30T04:22:23;97595.88;;;-2.56;100.00
62510;BME280;48558;48.242;11.654;2024-01-30T04:26:36;97603.88;;;-2.60;100.00
62510;BME280;48558;48.242;11.654;2024-01-30T04:30:49;97554.31;;;-2.92;100.00
62510;BME280;48558;48.242;11.654;2024-01-30T04:35:02;97589.72;;;-2.69;100.00
62510;BME280;48558;48.242;11.654;2024-01-30T04:39:21;97595.78;;;-2.60;100.00
62510;BME280;48558;48.242;11.654;2024-01-30T04:43:34;97607.63;;;-2.64;100.00
62510;BME280;48558;48.242;11.654;2024-01-30T04:47:46;97543.91;;;-3.05;100.00
62510;BME280;48558;48.242;11.654;2024-01-30T04:51:59;97605.06;;;-2.73;100.00
62510;BME280;48558;48.242;11.654;2024-01-30T04:56:12;97612.75;;;-2.75;100.00
62510;BME280;48558;48.242;11.654;2024-01-30T05:00:24;97615.38;;;-2.78;100.00
62510;BME280;48558;48.242;11.654;2024-01-30T05:04:37;97634.59;;;-2.68;100.00
62510;BME280;48558;48.242;11.654;2024-01-30T05:08:50;97594.41;;;-2.81;100.00
62510;BME280;48558;48.242;11.654;2024-01-30T05:13:02;97615.09;;;-2.73;100.00
62510;BME280;48558;48.242;11.654;2024-01-30T05:17:15;97599.75;;;-2.85;100.00
62510;BME280;48558;48.242;11.654;2024-01-30T05:21:28;97626.63;;;-2.76;100.00
62510;BME280;48558;48.242;11.654;2024-01-30T05:25:40;97611.66;;;-2.86;100.00
62510;BME280;48558;48.242;11.654;2024-01-30T05:29:53;97631.53;;;-2.66;100.00
62510;BME280;48558;48.242;11.654;2024-01-30T05:34:05;97640.69;;;-2.71;100.00
62510;BME280;48558;48.242;11.654;2024-01-30T05:38:19;97637.31;;;-2.68;100.00
62510;BME280;48558;48.242;11.654;2024-01-30T05:42:31;97596.72;;;-2.96;100.00
62510;BME280;48558;48.242;11.654;2024-01-30T05:46:44;97617.63;;;-2.80;100.00
62510;BME280;48558;48.242;11.654;2024-01-30T05:50:56;97625.28;;;-2.82;100.00
62510;BME280;48558;48.242;11.654;2024-01-30T05:55:09;97617.44;;;-2.87;100.00
62510;BME280;48558;48.242;11.654;2024-01-30T05:59:24;97628.25;;;-2.87;100.00
62510;BME280;48558;48.242;11.654;2024-01-30T06:03:36;97604.50;;;-2.94;100.00
62510;BME280;48558;48.242;11.654;2024-01-30T06:07:49;97578.88;;;-3.12;100.00
62510;BME280;48558;48.242;11.654;2024-01-30T06:12:02;97618.84;;;-2.50;100.00
62510;BME280;48558;48.242;11.654;2024-01-30T06:16:14;97649.94;;;-2.44;100.00
62510;BME280;48558;48.242;11.654;2024-01-30T06:20:33;97647.53;;;-2.61;100.00
62510;BME280;48558;48.242;11.654;2024-01-30T06:24:46;97638.09;;;-2.67;100.00
62510;BME280;48558;48.242;11.654;2024-01-30T06:29:00;97654.22;;;-2.71;100.00
62510;BME280;48558;48.242;11.654;2024-01-30T06:33:13;97642.34;;;-2.66;100.00
62510;BME280;48558;48.242;11.654;2024-01-30T06:37:26;97651.19;;;-2.69;100.00
62510;BME280;48558;48.242;11.654;2024-01-30T06:41:38;97661.78;;;-2.76;100.00
62510;BME280;48558;48.242;11.654;2024-01-30T06:45:51;97663.69;;;-2.65;100.00
62510;BME280;48558;48.242;11.654;2024-01-30T06:50:04;97666.47;;;-2.61;100.00
62510;BME280;48558;48.242;11.654;2024-01-30T06:54:17;97649.06;;;-2.76;100.00
62510;BME280;48558;48.242;11.654;2024-01-30T06:58:29;97670.31;;;-2.62;100.00
62510;BME280;48558;48.242;11.654;2024-01-30T07:02:42;97682.03;;;-2.58;100.00
62510;BME280;48558;48.242;11.654;2024-01-30T07:06:55;97671.50;;;-2.48;100.00
62510;BME280;48558;48.242;11.654;2024-01-30T07:11:07;97653.78;;;-2.45;100.00
62510;BME280;48558;48.242;11.654;2024-01-30T07:15:20;97670.41;;;-2.31;100.00
62510;BME280;48558;48.242;11.654;2024-01-30T07:19:33;97652.22;;;-2.31;100.00
62510;BME280;48558;48.242;11.654;2024-01-30T07:23:46;97654.38;;;-2.24;100.00
62510;BME280;48558;48.242;11.654;2024-01-30T07:27:59;97679.03;;;-1.98;100.00
62510;BME280;48558;48.242;11.654;2024-01-30T07:32:12;97680.28;;;-1.80;100.00
62510;BME280;48558;48.242;11.654;2024-01-30T07:36:24;97684.13;;;-1.65;100.00
62510;BME280;48558;48.242;11.654;2024-01-30T07:40:37;97667.53;;;-1.64;100.00
62510;BME280;48558;48.242;11.654;2024-01-30T07:44:50;97682.28;;;-1.46;100.00
62510;BME280;48558;48.242;11.654;2024-01-30T07:49:03;97682.34;;;-1.26;100.00
62510;BME280;48558;48.242;11.654;2024-01-30T07:53:15;97668.69;;;-1.14;100.00
62510;BME280;48558;48.242;11.654;2024-01-30T07:57:28;97682.31;;;-0.95;100.00
62510;BME280;48558;48.242;11.654;2024-01-30T08:01:41;97690.47;;;-0.76;100.00
62510;BME280;48558;48.242;11.654;2024-01-30T08:05:53;97682.13;;;-0.67;100.00
62510;BME280;48558;48.242;11.654;2024-01-30T08:10:06;97697.28;;;-0.28;100.00
62510;BME280;48558;48.242;11.654;2024-01-30T08:14:19;97698.66;;;-0.19;100.00
62510;BME280;48558;48.242;11.654;2024-01-30T08:18:33;97686.41;;;-0.09;100.00
62510;BME280;48558;48.242;11.654;2024-01-30T08:22:45;97698.47;;;0.13;100.00
62510;BME280;48558;48.242;11.654;2024-01-30T08:26:58;97696.56;;;0.36;100.00
62510;BME280;48558;48.242;11.654;2024-01-30T08:31:11;97691.25;;;0.43;100.00
62510;BME280;48558;48.242;11.654;2024-01-30T08:35:26;97685.34;;;0.63;100.00
62510;BME280;48558;48.242;11.654;2024-01-30T08:39:39;97696.72;;;0.95;100.00
62510;BME280;48558;48.242;11.654;2024-01-30T08:43:52;97684.50;;;1.08;100.00
62510;BME280;48558;48.242;11.654;2024-01-30T08:48:05;97689.47;;;1.29;100.00
62510;BME280;48558;48.242;11.654;2024-01-30T08:52:18;97689.03;;;1.57;100.00
62510;BME280;48558;48.242;11.654;2024-01-30T08:56:31;97697.91;;;1.83;100.00
62510;BME280;48558;48.242;11.654;2024-01-30T09:00:44;97692.56;;;1.90;100.00
62510;BME280;48558;48.242;11.654;2024-01-30T09:04:58;97700.69;;;2.20;100.00
62510;BME280;48558;48.242;11.654;2024-01-30T09:09:11;97692.31;;;2.43;100.00
62510;BME280;48558;48.242;11.654;2024-01-30T09:13:23;97688.53;;;2.54;100.00
62510;BME280;48558;48.242;11.654;2024-01-30T09:17:36;97699.72;;;2.86;100.00
62510;BME280;48558;48.242;11.654;2024-01-30T09:21:49;97679.13;;;2.96;100.00
62510;BME280;48558;48.242;11.654;2024-01-30T09:26:01;97709.53;;;3.52;99.52
62510;BME280;48558;48.242;11.654;2024-01-30T09:30:14;97691.25;;;3.59;100.00
62510;BME280;48558;48.242;11.654;2024-01-30T09:34:27;97700.31;;;3.81;96.65
62510;BME280;48558;48.242;11.654;2024-01-30T09:38:39;97704.72;;;4.07;95.51
62510;BME280;48558;48.242;11.654;2024-01-30T09:42:52;97716.16;;;4.62;90.00
62510;BME280;48558;48.242;11.654;2024-01-30T09:47:06;97713.03;;;4.77;87.39
62510;BME280;48558;48.242;11.654;2024-01-30T09:51:20;97713.47;;;5.04;84.52
62510;BME280;48558;48.242;11.654;2024-01-30T09:55:35;97720.44;;;5.47;84.96
62510;BME280;48558;48.242;11.654;2024-01-30T09:59:48;97675.41;;;5.55;78.75
62510;BME280;48558;48.242;11.654;2024-01-30T10:04:04;97719.81;;;6.30;78.10
62510;BME280;48558;48.242;11.654;2024-01-30T10:08:17;97706.88;;;6.85;73.16
62510;BME280;48558;48.242;11.654;2024-01-30T10:12:31;97715.84;;;6.96;70.38
62510;BME280;48558;48.242;11.654;2024-01-30T10:16:46;97704.16;;;7.30;70.49
62510;BME280;48558;48.242;11.654;2024-01-30T10:20:59;97683.41;;;7.62;69.80
62510;BME280;48558;48.242;11.654;2024-01-30T10:25:12;97699.59;;;7.90;68.81
62510;BME280;48558;48.242;11.654;2024-01-30T10:29:25;97701.53;;;8.27;65.73
62510;BME280;48558;48.242;11.654;2024-01-30T10:33:38;97696.25;;;8.40;65.04
62510;BME280;48558;48.242;11.654;2024-01-30T10:37:51;97690.81;;;8.63;62.62
62510;BME280;48558;48.242;11.654;2024-01-30T10:42:05;97674.84;;;9.01;63.00
62510;BME280;48558;48.242;11.654;2024-01-30T10:46:19;97679.66;;;9.20;63.10
62510;BME280;48558;48.242;11.654;2024-01-30T10:50:32;97659.50;;;9.23;63.56
62510;BME280;48558;48.242;11.654;2024-01-30T10:54:54;97662.47;;;9.55;60.31
62510;BME280;48558;48.242;11.654;2024-01-30T10:59:07;97655.09;;;9.68;59.89
62510;BME280;48558;48.242;11.654;2024-01-30T11:03:23;97643.59;;;10.13;57.83
62510;BME280;48558;48.242;11.654;2024-01-30T11:07:39;97639.81;;;10.74;56.35
62510;BME280;48558;48.242;11.654;2024-01-30T11:11:59;97639.41;;;10.92;57.50
62510;BME280;48558;48.242;11.654;2024-01-30T11:16:15;97640.91;;;11.25;56.85
62510;BME280;48558;48.242;11.654;2024-01-30T11:20:30;97622.03;;;11.36;54.35
62510;BME280;48558;48.242;11.654;2024-01-30T11:24:47;97631.34;;;10.81;54.33
62510;BME280;48558;48.242;11.654;2024-01-30T11:29:04;97629.50;;;10.59;56.27
62510;BME280;48558;48.242;11.654;2024-01-30T11:33:30;97619.56;;;11.26;53.15
62510;BME280;48558;48.242;11.654;2024-01-30T11:37:45;97623.06;;;12.00;52.76
62510;BME280;48558;48.242;11.654;2024-01-30T11:42:03;97615.59;;;12.63;51.65
62510;BME280;48558;48.242;11.654;2024-01-30T11:46:18;97606.69;;;13.06;49.09
62510;BME280;48558;48.242;11.654;2024-01-30T11:50:35;97612.25;;;13.06;47.61
62510;BME280;48558;48.242;11.654;2024-01-30T11:54:51;97613.56;;;13.48;47.88
62510;BME280;48558;48.242;11.654;2024-01-30T11:59:04;97608.78;;;13.49;47.83
62510;BME280;48558;48.242;11.654;2024-01-30T12:03:17;97606.00;;;13.49;47.39
62510;BME280;48558;48.242;11.654;2024-01-30T12:07:29;97598.69;;;12.95;48.56
62510;BME280;48558;48.242;11.654;2024-01-30T12:11:47;97592.03;;;13.06;48.68
62510;BME280;48558;48.242;11.654;2024-01-30T12:16:00;97584.38;;;12.97;48.92
62510;BME280;48558;48.242;11.654;2024-01-30T12:20:15;97582.63;;;12.78;49.53
62510;BME280;48558;48.242;11.654;2024-01-30T12:24:30;97578.56;;;13.17;48.74
62510;BME280;48558;48.242;11.654;2024-01-30T12:28:50;97582.09;;;13.73;47.38
62510;BME280;48558;48.242;11.654;2024-01-30T12:33:03;97580.38;;;13.66;45.66
62510;BME280;48558;48.242;11.654;2024-01-30T12:37:17;97572.78;;;14.10;46.56
62510;BME280;48558;48.242;11.654;2024-01-30T12:41:36;97558.59;;;14.17;47.01
62510;BME280;48558;48.242;11.654;2024-01-30T12:45:49;97551.53;;;13.95;48.39
62510;BME280;48558;48.242;11.654;2024-01-30T12:50:02;97557.69;;;13.46;49.99
62510;BME280;48558;48.242;11.654;2024-01-30T12:54:16;97553.97;;;13.28;50.41
62510;BME280;48558;48.242;11.654;2024-01-30T12:58:28;97559.19;;;13.60;49.50
62510;BME280;48558;48.242;11.654;2024-01-30T13:02:41;97528.31;;;13.36;48.16
62510;BME280;48558;48.242;11.654;2024-01-30T13:06:57;97537.47;;;13.46;49.67
62510;BME280;48558;48.242;11.654;2024-01-30T13:11:10;97549.94;;;13.63;48.01
62510;BME280;48558;48.242;11.654;2024-01-30T13:15:32;97561.88;;;13.29;48.27
62510;BME280;48558;48.242;11.654;2024-01-30T13:19:44;97547.34;;;13.68;46.26
62510;BME280;48558;48.242;11.654;2024-01-30T13:23:57;97550.50;;;13.80;45.82
62510;BME280;48558;48.242;11.654;2024-01-30T13:28:09;97552.00;;;14.24;45.42
62510;BME280;48558;48.242;11.654;2024-01-30T13:32:22;97552.41;;;15.02;44.71
62510;BME280;48558;48.242;11.654;2024-01-30T13:36:34;97542.97;;;15.27;45.09
62510;BME280;48558;48.242;11.654;2024-01-30T13:40:47;97557.78;;;14.78;46.31
62510;BME280;48558;48.242;11.654;2024-01-30T13:45:00;97561.88;;;15.41;45.01
62510;BME280;48558;48.242;11.654;2024-01-30T13:49:13;97560.94;;;15.80;44.50
62510;BME280;48558;48.242;11.654;2024-01-30T13:53:25;97554.00;;;15.57;45.51
62510;BME280;48558;48.242;11.654;2024-01-30T13:57:39;97557.53;;;15.85;47.24
62510;BME280;48558;48.242;11.654;2024-01-30T14:01:51;97553.44;;;14.86;47.92
62510;BME280;48558;48.242;11.654;2024-01-30T14:06:05;97547.81;;;14.59;47.64
62510;BME280;48558;48.242;11.654;2024-01-30T14:10:18;97567.25;;;13.67;48.41
62510;BME280;48558;48.242;11.654;2024-01-30T14:14:31;97558.81;;;13.15;49.84
62510;BME280;48558;48.242;11.654;2024-01-30T14:18:43;97550.34;;;12.71;50.35
62510;BME280;48558;48.242;11.654;2024-01-30T14:22:56;97565.56;;;12.42;53.09
62510;BME280;48558;48.242;11.654;2024-01-30T14:27:10;97550.72;;;11.98;53.18
62510;BME280;48558;48.242;11.654;2024-01-30T14:31:22;97548.19;;;11.33;55.21
62510;BME280;48558;48.242;11.654;2024-01-30T14:35:36;97569.31;;;11.27;55.46
62510;BME280;48558;48.242;11.654;2024-01-30T14:39:49;97566.28;;;11.22;55.63
62510;BME280;48558;48.242;11.654;2024-01-30T14:44:02;97558.06;;;11.06;55.42
62510;BME280;48558;48.242;11.654;2024-01-30T14:48:18;97570.66;;;10.91;55.99
62510;BME280;48558;48.242;11.654;2024-01-30T14:52:31;97569.94;;;10.74;56.33
62510;BME280;48558;48.242;11.654;2024-01-30T14:56:48;97569.22;;;10.38;57.94
62510;BME280;48558;48.242;11.654;2024-01-30T15:01:01;97576.03;;;10.17;58.90
62510;BME280;48558;48.242;11.654;2024-01-30T15:05:14;97575.50;;;10.02;59.54
62510;BME280;48558;48.242;11.654;2024-01-30T15:09:27;97576.81;;;10.18;59.49
62510;BME280;48558;48.242;11.654;2024-01-30T15:13:42;97583.41;;;9.84;60.67
62510;BME280;48558;48.242;11.654;2024-01-30T15:17:54;97582.78;;;9.77;61.42
62510;BME280;48558;48.242;11.654;2024-01-30T15:22:07;97596.44;;;9.64;61.67
62510;BME280;48558;48.242;11.654;2024-01-30T15:26:20;97584.63;;;9.44;62.67
62510;BME280;48558;48.242;11.654;2024-01-30T15:30:33;97598.22;;;9.12;64.73
62510;BME280;48558;48.242;11.654;2024-01-30T15:34:45;97596.59;;;8.95;64.94
62510;BME280;48558;48.242;11.654;2024-01-30T15:38:58;97600.47;;;8.74;65.95
62510;BME280;48558;48.242;11.654;2024-01-30T15:43:11;97601.22;;;8.51;67.87
62510;BME280;48558;48.242;11.654;2024-01-30T15:47:24;97599.34;;;8.18;70.73
62510;BME280;48558;48.242;11.654;2024-01-30T15:51:37;97599.81;;;7.83;73.46
62510;BME280;48558;48.242;11.654;2024-01-30T15:55:49;97597.06;;;7.53;77.20
62510;BME280;48558;48.242;11.654;2024-01-30T16:00:03;97608.66;;;7.37;80.23
62510;BME280;48558;48.242;11.654;2024-01-30T16:04:16;97611.13;;;6.87;82.98
62510;BME280;48558;48.242;11.654;2024-01-30T16:08:29;97622.00;;;6.50;86.98
62510;BME280;48558;48.242;11.654;2024-01-30T16:12:45;97625.75;;;6.19;91.61
62510;BME280;48558;48.242;11.654;2024-01-30T16:16:58;97628.31;;;5.85;95.54
62510;BME280;48558;48.242;11.654;2024-01-30T16:21:11;97617.06;;;5.48;99.24
62510;BME280;48558;48.242;11.654;2024-01-30T16:25:26;97640.16;;;5.43;100.00
62510;BME280;48558;48.242;11.654;2024-01-30T16:29:38;97635.94;;;5.18;100.00
62510;BME280;48558;48.242;11.654;2024-01-30T16:33:51;97655.94;;;4.97;100.00
62510;BME280;48558;48.242;11.654;2024-01-30T16:38:03;97664.53;;;4.78;100.00
62510;BME280;48558;48.242;11.654;2024-01-30T16:42:16;97650.84;;;4.60;100.00
62510;BME280;48558;48.242;11.654;2024-01-30T16:46:28;97654.38;;;4.43;100.00
62510;BME280;48558;48.242;11.654;2024-01-30T16:50:41;97665.69;;;4.34;100.00
62510;BME280;48558;48.242;11.654;2024-01-30T16:54:54;97668.38;;;4.17;100.00
62510;BME280;48558;48.242;11.654;2024-01-30T16:59:06;97672.63;;;4.00;100.00
62510;BME280;48558;48.242;11.654;2024-01-30T17:03:19;97674.16;;;3.87;100.00
62510;BME280;48558;48.242;11.654;2024-01-30T17:07:32;97658.47;;;3.74;100.00
62510;BME280;48558;48.242;11.654;2024-01-30T17:11:47;97688.50;;;3.63;100.00
62510;BME280;48558;48.242;11.654;2024-01-30T17:16:00;97673.97;;;3.48;100.00
62510;BME280;48558;48.242;11.654;2024-01-30T17:20:12;97686.06;;;3.40;100.00
62510;BME280;48558;48.242;11.654;2024-01-30T17:24:25;97698.56;;;3.45;100.00
62510;BME280;48558;48.242;11.654;2024-01-30T17:28:53;97691.91;;;3.39;100.00
62510;BME280;48558;48.242;11.654;2024-01-30T17:33:05;97700.81;;;3.29;100.00
62510;BME280;48558;48.242;11.654;2024-01-30T17:37:18;97690.94;;;3.10;100.00
62510;BME280;48558;48.242;11.654;2024-01-30T17:41:31;97703.75;;;3.03;100.00
62510;BME280;48558;48.242;11.654;2024-01-30T17:45:44;97699.44;;;2.98;100.00
62510;BME280;48558;48.242;11.654;2024-01-30T17:49:57;97710.31;;;2.95;100.00
62510;BME280;48558;48.242;11.654;2024-01-30T17:54:09;97705.19;;;2.86;100.00
62510;BME280;48558;48.242;11.654;2024-01-30T17:58:22;97705.06;;;2.72;100.00
62510;BME280;48558;48.242;11.654;2024-01-30T18:02:35;97717.56;;;2.76;100.00
62510;BME280;48558;48.242;11.654;2024-01-30T18:06:51;97711.78;;;2.85;100.00
62510;BME280;48558;48.242;11.654;2024-01-30T18:11:05;97714.03;;;2.72;100.00
62510;BME280;48558;48.242;11.654;2024-01-30T18:15:18;97714.38;;;2.67;100.00
62510;BME280;48558;48.242;11.654;2024-01-30T18:19:30;97716.22;;;2.56;100.00
62510;BME280;48558;48.242;11.654;2024-01-30T18:23:43;97720.72;;;2.35;100.00
62510;BME280;48558;48.242;11.654;2024-01-30T18:27:55;97717.53;;;2.29;100.00
62510;BME280;48558;48.242;11.654;2024-01-30T18:32:08;97719.81;;;2.24;100.00
62510;BME280;48558;48.242;11.654;2024-01-30T18:36:23;97718.56;;;2.17;100.00
62510;BME280;48558;48.242;11.654;2024-01-30T18:40:36;97718.44;;;2.03;100.00
62510;BME280;48558;48.242;11.654;2024-01-30T18:44:49;97726.88;;;1.95;100.00
62510;BME280;48558;48.242;11.654;2024-01-30T18:49:01;97671.22;;;1.63;100.00
62510;BME280;48558;48.242;11.654;2024-01-30T18:53:15;97719.22;;;1.74;100.00
62510;BME280;48558;48.242;11.654;2024-01-30T18:57:29;97728.94;;;1.72;100.00
62510;BME280;48558;48.242;11.654;2024-01-30T19:01:41;97734.81;;;1.74;100.00
62510;BME280;48558;48.242;11.654;2024-01-30T19:05:54;97730.88;;;1.71;100.00
62510;BME280;48558;48.242;11.654;2024-01-30T19:10:08;97743.50;;;1.83;100.00
62510;BME280;48558;48.242;11.654;2024-01-30T19:14:22;97736.41;;;1.78;100.00
62510;BME280;48558;48.242;11.654;2024-01-30T19:18:35;97739.19;;;1.82;100.00
62510;BME280;48558;48.242;11.654;2024-01-30T19:22:48;97738.63;;;1.99;100.00
62510;BME280;48558;48.242;11.654;2024-01-30T19:27:01;97743.84;;;1.81;100.00
62510;BME280;48558;48.242;11.654;2024-01-30T19:31:13;97739.00;;;1.68;100.00
62510;BME280;48558;48.242;11.654;2024-01-30T19:35:29;97733.44;;;1.61;100.00
62510;BME280;48558;48.242;11.654;2024-01-30T19:39:42;97740.84;;;1.60;100.00
62510;BME280;48558;48.242;11.654;2024-01-30T19:43:56;97746.81;;;1.69;100.00
62510;BME280;48558;48.242;11.654;2024-01-30T19:48:08;97749.88;;;1.68;100.00
62510;BME280;48558;48.242;11.654;2024-01-30T19:52:22;97749.19;;;1.74;100.00
62510;BME280;48558;48.242;11.654;2024-01-30T19:56:35;97754.13;;;1.95;100.00
62510;BME280;48558;48.242;11.654;2024-01-30T20:00:48;97759.34;;;2.07;100.00
62510;BME280;48558;48.242;11.654;2024-01-30T20:05:02;97764.22;;;1.91;100.00
62510;BME280;48558;48.242;11.654;2024-01-30T20:09:15;97763.25;;;1.76;100.00
62510;BME280;48558;48.242;11.654;2024-01-30T20:13:28;97767.66;;;1.88;100.00
62510;BME280;48558;48.242;11.654;2024-01-30T20:17:59;97763.59;;;1.75;100.00
62510;BME280;48558;48.242;11.654;2024-01-30T20:22:32;97757.81;;;1.76;100.00
62510;BME280;48558;48.242;11.654;2024-01-30T20:26:45;97761.13;;;1.63;100.00
62510;BME280;48558;48.242;11.654;2024-01-30T20:30:58;97772.38;;;1.61;100.00
62510;BME280;48558;48.242;11.654;2024-01-30T20:35:11;97775.75;;;1.51;100.00
62510;BME280;48558;48.242;11.654;2024-01-30T20:39:24;97756.09;;;1.38;100.00
62510;BME280;48558;48.242;11.654;2024-01-30T20:43:38;97772.03;;;1.36;100.00
62510;BME280;48558;48.242;11.654;2024-01-30T20:47:50;97783.81;;;1.44;100.00
62510;BME280;48558;48.242;11.654;2024-01-30T20:52:03;97786.97;;;1.46;100.00
62510;BME280;48558;48.242;11.654;2024-01-30T20:56:16;97760.31;;;1.32;100.00
62510;BME280;48558;48.242;11.654;2024-01-30T21:00:29;97780.72;;;1.45;100.00
62510;BME280;48558;48.242;11.654;2024-01-30T21:04:41;97790.88;;;1.49;100.00
62510;BME280;48558;48.242;11.654;2024-01-30T21:09:00;97783.75;;;1.40;100.00
62510;BME280;48558;48.242;11.654;2024-01-30T21:13:13;97791.09;;;1.36;100.00
62510;BME280;48558;48.242;11.654;2024-01-30T21:17:25;97778.13;;;1.26;100.00
62510;BME280;48558;48.242;11.654;2024-01-30T21:21:38;97772.19;;;1.21;100.00
62510;BME280;48558;48.242;11.654;2024-01-30T21:25:51;97780.41;;;1.24;100.00
62510;BME280;48558;48.242;11.654;2024-01-30T21:30:05;97791.47;;;1.35;100.00
62510;BME280;48558;48.242;11.654;2024-01-30T21:34:18;97750.28;;;1.14;100.00
62510;BME280;48558;48.242;11.654;2024-01-30T21:38:31;97757.00;;;1.20;100.00
62510;BME280;48558;48.242;11.654;2024-01-30T21:42:43;97783.00;;;1.40;100.00
62510;BME280;48558;48.242;11.654;2024-01-30T21:46:58;97783.41;;;1.42;100.00
62510;BME280;48558;48.242;11.654;2024-01-30T21:51:11;97787.66;;;1.39;100.00
62510;BME280;48558;48.242;11.654;2024-01-30T21:55:23;97754.03;;;1.28;100.00
62510;BME280;48558;48.242;11.654;2024-01-30T21:59:36;97773.72;;;1.44;100.00